sensor_id;sensor_type;location;lat;lon;timestamp;P1;durP1;ratioP1;P2;durP2;ratioP2
73959;SDS011;62316;48.920;2.342;2022-12-11T00:02:01;33.25;;;28.75;;
73959;SDS011;62316;48.920;2.342;2022-12-11T00:04:27;27.25;;;24.50;;
73959;SDS011;62316;48.920;2.342;2022-12-11T00:06:52;23.25;;;19.75;;
73959;SDS011;62316;48.920;2.342;2022-12-11T00:09:18;36.25;;;28.00;;
73959;SDS011;62316;48.920;2.342;2022-12-11T00:11:44;23.50;;;21.00;;
73959;SDS011;62316;48.920;2.342;2022-12-11T00:14:09;36.75;;;29.25;;
73959;SDS011;62316;48.920;2.342;2022-12-11T00:16:34;38.00;;;29.75;;
73959;SDS011;62316;48.920;2.342;2022-12-11T00:18:59;35.00;;;28.00;;
73959;SDS011;62316;48.920;2.342;2022-12-11T00:21:25;24.00;;;22.25;;
73959;SDS011;62316;48.920;2.342;2022-12-11T00:23:50;27.50;;;21.75;;
73959;SDS011;62316;48.920;2.342;2022-12-11T00:26:16;33.50;;;25.25;;
73959;SDS011;62316;48.920;2.342;2022-12-11T00:28:41;41.00;;;30.50;;
73959;SDS011;62316;48.920;2.342;2022-12-11T00:31:08;25.50;;;22.25;;
73959;SDS011;62316;48.920;2.342;2022-12-11T00:33:33;32.25;;;26.25;;
73959;SDS011;62316;48.920;2.342;2022-12-11T00:35:59;37.75;;;31.50;;
73959;SDS011;62316;48.920;2.342;2022-12-11T00:38:24;28.25;;;24.75;;
73959;SDS011;62316;48.920;2.342;2022-12-11T00:40:49;34.50;;;23.75;;
73959;SDS011;62316;48.920;2.342;2022-12-11T00:43:15;27.25;;;21.50;;
73959;SDS011;62316;48.920;2.342;2022-12-11T00:45:44;31.50;;;22.00;;
73959;SDS011;62316;48.920;2.342;2022-12-11T00:48:10;23.75;;;22.00;;
73959;SDS011;62316;48.920;2.342;2022-12-11T00:50:36;22.00;;;21.00;;
73959;SDS011;62316;48.920;2.342;2022-12-11T00:53:02;17.50;;;14.50;;
73959;SDS011;62316;48.920;2.342;2022-12-11T00:55:27;28.50;;;28.00;;
73959;SDS011;62316;48.920;2.342;2022-12-11T00:57:53;32.00;;;23.75;;
73959;SDS011;62316;48.920;2.342;2022-12-11T01:00:19;27.00;;;23.75;;
73959;SDS011;62316;48.920;2.342;2022-12-11T01:02:44;31.00;;;25.25;;
73959;SDS011;62316;48.920;2.342;2022-12-11T01:05:09;31.25;;;22.00;;
73959;SDS011;62316;48.920;2.342;2022-12-11T01:07:35;25.75;;;20.75;;
73959;SDS011;62316;48.920;2.342;2022-12-11T01:10:00;30.00;;;24.75;;
73959;SDS011;62316;48.920;2.342;2022-12-11T01:12:44;31.00;;;25.00;;
73959;SDS011;62316;48.920;2.342;2022-12-11T01:15:10;26.25;;;22.00;;
73959;SDS011;62316;48.920;2.342;2022-12-11T01:17:35;30.25;;;26.75;;
73959;SDS011;62316;48.920;2.342;2022-12-11T01:20:01;29.75;;;24.25;;
73959;SDS011;62316;48.920;2.342;2022-12-11T01:22:27;26.25;;;21.25;;
73959;SDS011;62316;48.920;2.342;2022-12-11T01:24:53;27.50;;;23.50;;
73959;SDS011;62316;48.920;2.342;2022-12-11T01:27:18;24.25;;;17.75;;
73959;SDS011;62316;48.920;2.342;2022-12-11T01:29:43;29.50;;;24.75;;
73959;SDS011;62316;48.920;2.342;2022-12-11T01:32:08;27.00;;;22.25;;
73959;SDS011;62316;48.920;2.342;2022-12-11T01:34:33;27.00;;;20.75;;
73959;SDS011;62316;48.920;2.342;2022-12-11T01:36:59;24.50;;;18.50;;
73959;SDS011;62316;48.920;2.342;2022-12-11T01:39:24;28.75;;;22.25;;
73959;SDS011;62316;48.920;2.342;2022-12-11T01:41:49;17.75;;;16.75;;
73959;SDS011;62316;48.920;2.342;2022-12-11T01:46:40;22.25;;;17.50;;
73959;SDS011;62316;48.920;2.342;2022-12-11T01:49:07;31.75;;;20.25;;
73959;SDS011;62316;48.920;2.342;2022-12-11T01:51:39;22.00;;;19.50;;
73959;SDS011;62316;48.920;2.342;2022-12-11T01:54:06;28.75;;;23.25;;
73959;SDS011;62316;48.920;2.342;2022-12-11T01:56:33;27.00;;;20.00;;
73959;SDS011;62316;48.920;2.342;2022-12-11T01:59:01;25.00;;;19.75;;
73959;SDS011;62316;48.920;2.342;2022-12-11T02:01:36;21.25;;;17.00;;
73959;SDS011;62316;48.920;2.342;2022-12-11T02:04:03;27.25;;;25.50;;
73959;SDS011;62316;48.920;2.342;2022-12-11T02:07:03;20.25;;;19.75;;
73959;SDS011;62316;48.920;2.342;2022-12-11T02:09:22;25.25;;;21.00;;
73959;SDS011;62316;48.920;2.342;2022-12-11T02:12:02;24.75;;;20.00;;
73959;SDS011;62316;48.920;2.342;2022-12-11T02:17:10;18.25;;;16.50;;
73959;SDS011;62316;48.920;2.342;2022-12-11T02:19:49;22.50;;;16.50;;
73959;SDS011;62316;48.920;2.342;2022-12-11T02:25:16;16.00;;;15.00;;
73959;SDS011;62316;48.920;2.342;2022-12-11T02:27:45;21.00;;;16.00;;
73959;SDS011;62316;48.920;2.342;2022-12-11T02:30:12;21.50;;;15.00;;
73959;SDS011;62316;48.920;2.342;2022-12-11T02:32:46;17.50;;;17.25;;
73959;SDS011;62316;48.920;2.342;2022-12-11T02:35:18;23.75;;;19.75;;
73959;SDS011;62316;48.920;2.342;2022-12-11T02:37:46;24.75;;;17.25;;
73959;SDS011;62316;48.920;2.342;2022-12-11T02:40:13;16.75;;;16.75;;
73959;SDS011;62316;48.920;2.342;2022-12-11T02:42:39;18.00;;;14.00;;
73959;SDS011;62316;48.920;2.342;2022-12-11T02:45:06;24.00;;;17.25;;
73959;SDS011;62316;48.920;2.342;2022-12-11T02:47:33;22.75;;;15.00;;
73959;SDS011;62316;48.920;2.342;2022-12-11T02:49:59;21.50;;;18.25;;
73959;SDS011;62316;48.920;2.342;2022-12-11T02:52:26;21.25;;;17.25;;
73959;SDS011;62316;48.920;2.342;2022-12-11T02:54:53;18.25;;;15.50;;
73959;SDS011;62316;48.920;2.342;2022-12-11T02:59:47;26.50;;;20.75;;
73959;SDS011;62316;48.920;2.342;2022-12-11T03:02:18;22.00;;;17.75;;
73959;SDS011;62316;48.920;2.342;2022-12-11T03:04:43;22.50;;;20.25;;
73959;SDS011;62316;48.920;2.342;2022-12-11T03:07:11;22.00;;;17.00;;
73959;SDS011;62316;48.920;2.342;2022-12-11T03:09:38;14.75;;;11.50;;
73959;SDS011;62316;48.920;2.342;2022-12-11T03:12:04;15.00;;;10.50;;
73959;SDS011;62316;48.920;2.342;2022-12-11T03:14:30;15.75;;;15.00;;
73959;SDS011;62316;48.920;2.342;2022-12-11T03:16:59;13.50;;;12.25;;
73959;SDS011;62316;48.920;2.342;2022-12-11T03:19:36;15.25;;;12.50;;
73959;SDS011;62316;48.920;2.342;2022-12-11T03:22:07;13.00;;;10.75;;
73959;SDS011;62316;48.920;2.342;2022-12-11T03:24:41;15.50;;;14.75;;
73959;SDS011;62316;48.920;2.342;2022-12-11T03:27:15;11.25;;;10.00;;
73959;SDS011;62316;48.920;2.342;2022-12-11T03:29:48;16.75;;;14.00;;
73959;SDS011;62316;48.920;2.342;2022-12-11T03:32:18;24.00;;;15.75;;
73959;SDS011;62316;48.920;2.342;2022-12-11T03:37:17;16.00;;;16.00;;
73959;SDS011;62316;48.920;2.342;2022-12-11T03:39:46;24.25;;;14.75;;
73959;SDS011;62316;48.920;2.342;2022-12-11T03:42:13;14.75;;;13.25;;
73959;SDS011;62316;48.920;2.342;2022-12-11T03:44:40;18.00;;;13.25;;
73959;SDS011;62316;48.920;2.342;2022-12-11T03:47:07;15.00;;;12.00;;
73959;SDS011;62316;48.920;2.342;2022-12-11T03:49:34;21.75;;;15.25;;
73959;SDS011;62316;48.920;2.342;2022-12-11T03:52:00;13.00;;;9.75;;
73959;SDS011;62316;48.920;2.342;2022-12-11T03:54:27;18.50;;;15.00;;
73959;SDS011;62316;48.920;2.342;2022-12-11T03:56:53;13.75;;;8.50;;
73959;SDS011;62316;48.920;2.342;2022-12-11T03:59:19;13.50;;;11.00;;
73959;SDS011;62316;48.920;2.342;2022-12-11T04:01:45;13.75;;;12.50;;
73959;SDS011;62316;48.920;2.342;2022-12-11T04:04:10;14.00;;;11.75;;
73959;SDS011;62316;48.920;2.342;2022-12-11T04:06:35;13.25;;;11.75;;
73959;SDS011;62316;48.920;2.342;2022-12-11T04:09:01;15.75;;;13.50;;
73959;SDS011;62316;48.920;2.342;2022-12-11T04:11:26;17.25;;;12.00;;
73959;SDS011;62316;48.920;2.342;2022-12-11T04:14:04;18.25;;;15.25;;
73959;SDS011;62316;48.920;2.342;2022-12-11T04:16:48;17.50;;;13.75;;
73959;SDS011;62316;48.920;2.342;2022-12-11T04:19:13;17.00;;;9.75;;
73959;SDS011;62316;48.920;2.342;2022-12-11T04:21:57;16.00;;;11.75;;
73959;SDS011;62316;48.920;2.342;2022-12-11T04:24:41;15.00;;;6.25;;
73959;SDS011;62316;48.920;2.342;2022-12-11T04:27:06;13.75;;;11.25;;
73959;SDS011;62316;48.920;2.342;2022-12-11T04:29:32;12.75;;;10.50;;
73959;SDS011;62316;48.920;2.342;2022-12-11T04:31:57;13.75;;;8.25;;
73959;SDS011;62316;48.920;2.342;2022-12-11T04:34:22;14.75;;;13.00;;
73959;SDS011;62316;48.920;2.342;2022-12-11T04:36:48;14.25;;;9.00;;
73959;SDS011;62316;48.920;2.342;2022-12-11T04:39:13;17.75;;;11.75;;
73959;SDS011;62316;48.920;2.342;2022-12-11T04:41:38;13.25;;;8.75;;
73959;SDS011;62316;48.920;2.342;2022-12-11T04:44:05;9.25;;;9.25;;
73959;SDS011;62316;48.920;2.342;2022-12-11T04:46:30;17.00;;;12.00;;
73959;SDS011;62316;48.920;2.342;2022-12-11T04:48:57;15.00;;;13.00;;
73959;SDS011;62316;48.920;2.342;2022-12-11T04:51:24;15.75;;;11.75;;
73959;SDS011;62316;48.920;2.342;2022-12-11T04:53:49;12.50;;;9.50;;
73959;SDS011;62316;48.920;2.342;2022-12-11T04:56:15;17.50;;;13.50;;
73959;SDS011;62316;48.920;2.342;2022-12-11T04:58:46;12.00;;;10.00;;
73959;SDS011;62316;48.920;2.342;2022-12-11T05:01:16;9.00;;;9.00;;
73959;SDS011;62316;48.920;2.342;2022-12-11T05:03:41;14.75;;;12.00;;
73959;SDS011;62316;48.920;2.342;2022-12-11T05:06:07;15.75;;;14.00;;
73959;SDS011;62316;48.920;2.342;2022-12-11T05:08:33;11.50;;;8.25;;
73959;SDS011;62316;48.920;2.342;2022-12-11T05:11:03;14.75;;;8.25;;
73959;SDS011;62316;48.920;2.342;2022-12-11T05:13:28;12.00;;;11.00;;
73959;SDS011;62316;48.920;2.342;2022-12-11T05:15:53;7.00;;;7.00;;
73959;SDS011;62316;48.920;2.342;2022-12-11T05:18:19;10.00;;;10.00;;
73959;SDS011;62316;48.920;2.342;2022-12-11T05:20:44;13.00;;;11.00;;
73959;SDS011;62316;48.920;2.342;2022-12-11T05:23:09;12.50;;;11.25;;
73959;SDS011;62316;48.920;2.342;2022-12-11T05:25:34;9.50;;;8.75;;
73959;SDS011;62316;48.920;2.342;2022-12-11T05:28:00;15.75;;;12.00;;
73959;SDS011;62316;48.920;2.342;2022-12-11T05:30:25;13.75;;;10.75;;
73959;SDS011;62316;48.920;2.342;2022-12-11T05:32:50;18.25;;;11.50;;
73959;SDS011;62316;48.920;2.342;2022-12-11T05:35:16;8.00;;;7.75;;
73959;SDS011;62316;48.920;2.342;2022-12-11T05:37:41;14.00;;;12.25;;
73959;SDS011;62316;48.920;2.342;2022-12-11T05:40:06;8.25;;;8.25;;
73959;SDS011;62316;48.920;2.342;2022-12-11T05:42:32;16.75;;;12.00;;
73959;SDS011;62316;48.920;2.342;2022-12-11T05:44:57;14.25;;;11.00;;
73959;SDS011;62316;48.920;2.342;2022-12-11T05:47:22;10.50;;;10.50;;
73959;SDS011;62316;48.920;2.342;2022-12-11T05:49:48;18.25;;;14.25;;
73959;SDS011;62316;48.920;2.342;2022-12-11T05:52:13;14.00;;;12.00;;
73959;SDS011;62316;48.920;2.342;2022-12-11T05:54:38;12.00;;;12.00;;
73959;SDS011;62316;48.920;2.342;2022-12-11T05:57:03;16.00;;;14.75;;
73959;SDS011;62316;48.920;2.342;2022-12-11T05:59:28;20.00;;;14.75;;
73959;SDS011;62316;48.920;2.342;2022-12-11T06:01:54;14.00;;;13.50;;
73959;SDS011;62316;48.920;2.342;2022-12-11T06:04:19;10.00;;;9.75;;
73959;SDS011;62316;48.920;2.342;2022-12-11T06:06:44;14.50;;;14.50;;
73959;SDS011;62316;48.920;2.342;2022-12-11T06:09:12;25.00;;;17.75;;
73959;SDS011;62316;48.920;2.342;2022-12-11T06:11:38;12.50;;;11.25;;
73959;SDS011;62316;48.920;2.342;2022-12-11T06:14:03;18.25;;;14.25;;
73959;SDS011;62316;48.920;2.342;2022-12-11T06:16:28;18.50;;;15.00;;
73959;SDS011;62316;48.920;2.342;2022-12-11T06:18:54;18.25;;;15.00;;
73959;SDS011;62316;48.920;2.342;2022-12-11T06:21:24;19.00;;;12.25;;
73959;SDS011;62316;48.920;2.342;2022-12-11T06:23:50;19.75;;;15.75;;
73959;SDS011;62316;48.920;2.342;2022-12-11T06:26:16;15.25;;;14.00;;
73959;SDS011;62316;48.920;2.342;2022-12-11T06:28:41;18.00;;;11.75;;
73959;SDS011;62316;48.920;2.342;2022-12-11T06:31:07;18.00;;;13.50;;
73959;SDS011;62316;48.920;2.342;2022-12-11T06:33:32;18.50;;;14.25;;
73959;SDS011;62316;48.920;2.342;2022-12-11T06:36:03;18.00;;;11.00;;
73959;SDS011;62316;48.920;2.342;2022-12-11T06:38:28;20.25;;;17.00;;
73959;SDS011;62316;48.920;2.342;2022-12-11T06:40:56;19.50;;;14.00;;
73959;SDS011;62316;48.920;2.342;2022-12-11T06:43:22;21.75;;;15.75;;
73959;SDS011;62316;48.920;2.342;2022-12-11T06:45:47;21.75;;;20.00;;
73959;SDS011;62316;48.920;2.342;2022-12-11T06:48:13;25.50;;;20.50;;
73959;SDS011;62316;48.920;2.342;2022-12-11T06:50:39;32.50;;;25.25;;
73959;SDS011;62316;48.920;2.342;2022-12-11T06:53:05;11.25;;;7.75;;
73959;SDS011;62316;48.920;2.342;2022-12-11T06:55:33;15.00;;;14.25;;
73959;SDS011;62316;48.920;2.342;2022-12-11T06:57:58;18.75;;;16.25;;
73959;SDS011;62316;48.920;2.342;2022-12-11T07:00:24;16.75;;;12.50;;
73959;SDS011;62316;48.920;2.342;2022-12-11T07:02:49;24.25;;;17.00;;
73959;SDS011;62316;48.920;2.342;2022-12-11T07:05:15;25.00;;;21.00;;
73959;SDS011;62316;48.920;2.342;2022-12-11T07:07:40;25.75;;;20.50;;
73959;SDS011;62316;48.920;2.342;2022-12-11T07:10:06;21.75;;;19.75;;
73959;SDS011;62316;48.920;2.342;2022-12-11T07:12:32;19.75;;;14.50;;
73959;SDS011;62316;48.920;2.342;2022-12-11T07:14:57;17.25;;;13.50;;
73959;SDS011;62316;48.920;2.342;2022-12-11T07:17:23;22.75;;;20.75;;
73959;SDS011;62316;48.920;2.342;2022-12-11T07:19:49;24.25;;;18.50;;
73959;SDS011;62316;48.920;2.342;2022-12-11T07:22:15;26.75;;;21.75;;
73959;SDS011;62316;48.920;2.342;2022-12-11T07:24:40;26.25;;;24.00;;
73959;SDS011;62316;48.920;2.342;2022-12-11T07:27:06;34.25;;;18.00;;
73959;SDS011;62316;48.920;2.342;2022-12-11T07:29:31;28.25;;;23.25;;
73959;SDS011;62316;48.920;2.342;2022-12-11T07:31:56;32.75;;;24.50;;
73959;SDS011;62316;48.920;2.342;2022-12-11T07:34:22;26.00;;;22.75;;
73959;SDS011;62316;48.920;2.342;2022-12-11T07:36:48;29.50;;;27.00;;
73959;SDS011;62316;48.920;2.342;2022-12-11T07:39:14;29.50;;;21.75;;
73959;SDS011;62316;48.920;2.342;2022-12-11T07:41:40;35.50;;;27.00;;
73959;SDS011;62316;48.920;2.342;2022-12-11T07:44:05;26.25;;;23.75;;
73959;SDS011;62316;48.920;2.342;2022-12-11T07:46:31;20.00;;;15.75;;
73959;SDS011;62316;48.920;2.342;2022-12-11T07:48:57;26.25;;;25.25;;
73959;SDS011;62316;48.920;2.342;2022-12-11T07:51:28;25.75;;;18.25;;
73959;SDS011;62316;48.920;2.342;2022-12-11T07:53:55;26.00;;;23.50;;
73959;SDS011;62316;48.920;2.342;2022-12-11T07:56:21;39.25;;;29.50;;
73959;SDS011;62316;48.920;2.342;2022-12-11T07:58:47;62.25;;;46.50;;
73959;SDS011;62316;48.920;2.342;2022-12-11T08:01:13;41.25;;;28.75;;
73959;SDS011;62316;48.920;2.342;2022-12-11T08:03:39;25.50;;;20.00;;
73959;SDS011;62316;48.920;2.342;2022-12-11T08:06:06;26.00;;;22.75;;
73959;SDS011;62316;48.920;2.342;2022-12-11T08:08:31;29.75;;;25.50;;
73959;SDS011;62316;48.920;2.342;2022-12-11T08:11:03;33.50;;;24.25;;
73959;SDS011;62316;48.920;2.342;2022-12-11T08:13:29;32.00;;;25.25;;
73959;SDS011;62316;48.920;2.342;2022-12-11T08:15:57;37.25;;;21.50;;
73959;SDS011;62316;48.920;2.342;2022-12-11T08:18:23;33.75;;;26.75;;
73959;SDS011;62316;48.920;2.342;2022-12-11T08:20:49;40.75;;;26.00;;
73959;SDS011;62316;48.920;2.342;2022-12-11T08:23:14;33.50;;;27.00;;
73959;SDS011;62316;48.920;2.342;2022-12-11T08:25:39;38.75;;;30.25;;
73959;SDS011;62316;48.920;2.342;2022-12-11T08:28:08;43.50;;;30.25;;
73959;SDS011;62316;48.920;2.342;2022-12-11T08:30:33;37.25;;;30.75;;
73959;SDS011;62316;48.920;2.342;2022-12-11T08:32:59;38.00;;;32.00;;
73959;SDS011;62316;48.920;2.342;2022-12-11T08:35:25;32.50;;;27.00;;
73959;SDS011;62316;48.920;2.342;2022-12-11T08:37:50;28.00;;;21.50;;
73959;SDS011;62316;48.920;2.342;2022-12-11T08:40:16;39.00;;;28.50;;
73959;SDS011;62316;48.920;2.342;2022-12-11T08:42:42;39.50;;;32.00;;
73959;SDS011;62316;48.920;2.342;2022-12-11T08:45:08;33.50;;;31.25;;
73959;SDS011;62316;48.920;2.342;2022-12-11T08:47:33;34.25;;;26.50;;
73959;SDS011;62316;48.920;2.342;2022-12-11T08:49:59;39.00;;;31.25;;
73959;SDS011;62316;48.920;2.342;2022-12-11T08:52:25;40.00;;;26.75;;
73959;SDS011;62316;48.920;2.342;2022-12-11T08:54:50;28.00;;;20.25;;
73959;SDS011;62316;48.920;2.342;2022-12-11T08:57:16;29.50;;;27.25;;
73959;SDS011;62316;48.920;2.342;2022-12-11T08:59:41;36.25;;;32.25;;
73959;SDS011;62316;48.920;2.342;2022-12-11T09:02:09;33.25;;;28.50;;
73959;SDS011;62316;48.920;2.342;2022-12-11T09:04:36;45.00;;;31.75;;
73959;SDS011;62316;48.920;2.342;2022-12-11T09:07:01;35.25;;;27.75;;
73959;SDS011;62316;48.920;2.342;2022-12-11T09:09:27;34.75;;;30.25;;
73959;SDS011;62316;48.920;2.342;2022-12-11T09:11:53;35.00;;;28.25;;
73959;SDS011;62316;48.920;2.342;2022-12-11T09:14:19;36.25;;;31.00;;
73959;SDS011;62316;48.920;2.342;2022-12-11T09:16:46;38.00;;;31.00;;
73959;SDS011;62316;48.920;2.342;2022-12-11T09:19:12;40.50;;;32.00;;
73959;SDS011;62316;48.920;2.342;2022-12-11T09:21:38;42.00;;;33.00;;
73959;SDS011;62316;48.920;2.342;2022-12-11T09:24:04;30.50;;;26.25;;
73959;SDS011;62316;48.920;2.342;2022-12-11T09:26:30;43.25;;;31.00;;
73959;SDS011;62316;48.920;2.342;2022-12-11T09:28:56;43.25;;;28.00;;
73959;SDS011;62316;48.920;2.342;2022-12-11T09:31:23;59.50;;;41.50;;
73959;SDS011;62316;48.920;2.342;2022-12-11T09:33:50;50.50;;;36.25;;
73959;SDS011;62316;48.920;2.342;2022-12-11T09:36:18;39.25;;;29.75;;
73959;SDS011;62316;48.920;2.342;2022-12-11T09:38:44;32.50;;;29.75;;
73959;SDS011;62316;48.920;2.342;2022-12-11T09:46:14;33.75;;;30.50;;
73959;SDS011;62316;48.920;2.342;2022-12-11T09:48:42;35.25;;;28.75;;
73959;SDS011;62316;48.920;2.342;2022-12-11T09:53:50;32.25;;;22.25;;
73959;SDS011;62316;48.920;2.342;2022-12-11T09:59:05;26.75;;;22.00;;
73959;SDS011;62316;48.920;2.342;2022-12-11T10:01:43;37.25;;;27.50;;
73959;SDS011;62316;48.920;2.342;2022-12-11T10:06:49;41.00;;;37.00;;
73959;SDS011;62316;48.920;2.342;2022-12-11T10:09:41;34.25;;;31.00;;
73959;SDS011;62316;48.920;2.342;2022-12-11T10:12:17;45.25;;;29.00;;
73959;SDS011;62316;48.920;2.342;2022-12-11T10:17:31;31.25;;;23.75;;
73959;SDS011;62316;48.920;2.342;2022-12-11T10:20:32;29.75;;;24.75;;
73959;SDS011;62316;48.920;2.342;2022-12-11T10:22:53;28.25;;;27.50;;
73959;SDS011;62316;48.920;2.342;2022-12-11T10:25:30;37.25;;;28.00;;
73959;SDS011;62316;48.920;2.342;2022-12-11T10:27:56;35.00;;;31.00;;
73959;SDS011;62316;48.920;2.342;2022-12-11T10:30:25;36.75;;;29.50;;
73959;SDS011;62316;48.920;2.342;2022-12-11T10:33:04;27.00;;;25.25;;
73959;SDS011;62316;48.920;2.342;2022-12-11T10:35:34;31.00;;;29.00;;
73959;SDS011;62316;48.920;2.342;2022-12-11T10:38:14;31.75;;;27.00;;
73959;SDS011;62316;48.920;2.342;2022-12-11T10:40:43;41.25;;;27.75;;
73959;SDS011;62316;48.920;2.342;2022-12-11T10:43:10;28.00;;;26.25;;
73959;SDS011;62316;48.920;2.342;2022-12-11T10:45:37;28.75;;;27.75;;
73959;SDS011;62316;48.920;2.342;2022-12-11T10:48:04;33.50;;;30.25;;
73959;SDS011;62316;48.920;2.342;2022-12-11T10:50:30;37.25;;;29.00;;
73959;SDS011;62316;48.920;2.342;2022-12-11T10:52:59;35.50;;;29.75;;
73959;SDS011;62316;48.920;2.342;2022-12-11T10:55:26;42.00;;;34.75;;
73959;SDS011;62316;48.920;2.342;2022-12-11T10:57:54;37.50;;;32.00;;
73959;SDS011;62316;48.920;2.342;2022-12-11T11:00:32;34.50;;;29.25;;
73959;SDS011;62316;48.920;2.342;2022-12-11T11:02:59;31.25;;;26.25;;
73959;SDS011;62316;48.920;2.342;2022-12-11T11:05:32;32.25;;;23.00;;
73959;SDS011;62316;48.920;2.342;2022-12-11T11:10:36;42.00;;;39.50;;
73959;SDS011;62316;48.920;2.342;2022-12-11T11:13:02;46.50;;;33.75;;
73959;SDS011;62316;48.920;2.342;2022-12-11T11:15:28;39.50;;;29.00;;
73959;SDS011;62316;48.920;2.342;2022-12-11T11:17:55;31.50;;;30.25;;
73959;SDS011;62316;48.920;2.342;2022-12-11T11:20:22;28.25;;;23.50;;
73959;SDS011;62316;48.920;2.342;2022-12-11T11:22:50;31.25;;;26.00;;
73959;SDS011;62316;48.920;2.342;2022-12-11T11:25:24;38.50;;;26.25;;
73959;SDS011;62316;48.920;2.342;2022-12-11T11:28:01;29.25;;;23.75;;
73959;SDS011;62316;48.920;2.342;2022-12-11T11:30:28;32.50;;;25.50;;
73959;SDS011;62316;48.920;2.342;2022-12-11T11:33:01;35.25;;;27.75;;
73959;SDS011;62316;48.920;2.342;2022-12-11T11:35:29;29.00;;;25.00;;
73959;SDS011;62316;48.920;2.342;2022-12-11T11:38:03;40.75;;;30.00;;
73959;SDS011;62316;48.920;2.342;2022-12-11T11:40:38;28.75;;;26.25;;
73959;SDS011;62316;48.920;2.342;2022-12-11T11:43:18;33.00;;;27.25;;
73959;SDS011;62316;48.920;2.342;2022-12-11T11:45:54;32.50;;;28.00;;
73959;SDS011;62316;48.920;2.342;2022-12-11T11:50:58;34.50;;;32.00;;
73959;SDS011;62316;48.920;2.342;2022-12-11T11:53:26;51.25;;;39.00;;
73959;SDS011;62316;48.920;2.342;2022-12-11T11:56:02;33.25;;;28.50;;
73959;SDS011;62316;48.920;2.342;2022-12-11T11:58:43;39.00;;;32.00;;
73959;SDS011;62316;48.920;2.342;2022-12-11T12:01:17;32.25;;;25.50;;
73959;SDS011;62316;48.920;2.342;2022-12-11T12:03:45;36.25;;;33.00;;
73959;SDS011;62316;48.920;2.342;2022-12-11T12:06:17;46.50;;;34.00;;
73959;SDS011;62316;48.920;2.342;2022-12-11T12:13:55;32.00;;;22.00;;
73959;SDS011;62316;48.920;2.342;2022-12-11T12:16:41;41.25;;;33.50;;
73959;SDS011;62316;48.920;2.342;2022-12-11T12:21:46;43.25;;;36.50;;
73959;SDS011;62316;48.920;2.342;2022-12-11T12:29:57;33.75;;;26.50;;
73959;SDS011;62316;48.920;2.342;2022-12-11T12:32:41;38.00;;;34.50;;
73959;SDS011;62316;48.920;2.342;2022-12-11T12:41:07;30.50;;;28.00;;
73959;SDS011;62316;48.920;2.342;2022-12-11T12:47:18;32.75;;;29.00;;
73959;SDS011;62316;48.920;2.342;2022-12-11T12:49:52;36.75;;;34.25;;
73959;SDS011;62316;48.920;2.342;2022-12-11T12:52:38;41.00;;;30.75;;
73959;SDS011;62316;48.920;2.342;2022-12-11T12:55:18;34.00;;;28.50;;
73959;SDS011;62316;48.920;2.342;2022-12-11T13:03:48;44.50;;;35.25;;
73959;SDS011;62316;48.920;2.342;2022-12-11T13:05:54;33.75;;;29.75;;
73959;SDS011;62316;48.920;2.342;2022-12-11T13:16:43;44.25;;;36.00;;
73959;SDS011;62316;48.920;2.342;2022-12-11T13:22:16;44.25;;;35.50;;
73959;SDS011;62316;48.920;2.342;2022-12-11T13:24:48;21.75;;;21.75;;
73959;SDS011;62316;48.920;2.342;2022-12-11T13:27:38;37.50;;;32.50;;
73959;SDS011;62316;48.920;2.342;2022-12-11T13:30:36;34.50;;;30.00;;
73959;SDS011;62316;48.920;2.342;2022-12-11T13:33:19;31.25;;;27.00;;
73959;SDS011;62316;48.920;2.342;2022-12-11T13:38:52;49.75;;;32.00;;
73959;SDS011;62316;48.920;2.342;2022-12-11T13:44:51;32.50;;;23.75;;
73959;SDS011;62316;48.920;2.342;2022-12-11T13:50:33;48.25;;;37.50;;
73959;SDS011;62316;48.920;2.342;2022-12-11T13:53:12;30.50;;;26.50;;
73959;SDS011;62316;48.920;2.342;2022-12-11T13:55:56;36.25;;;31.00;;
73959;SDS011;62316;48.920;2.342;2022-12-11T13:58:47;41.75;;;35.50;;
73959;SDS011;62316;48.920;2.342;2022-12-11T14:01:31;46.50;;;33.75;;
73959;SDS011;62316;48.920;2.342;2022-12-11T14:04:27;45.00;;;31.00;;
73959;SDS011;62316;48.920;2.342;2022-12-11T14:10:13;39.75;;;32.75;;
73959;SDS011;62316;48.920;2.342;2022-12-11T14:15:52;32.75;;;22.50;;
73959;SDS011;62316;48.920;2.342;2022-12-11T14:28:35;27.50;;;26.75;;
73959;SDS011;62316;48.920;2.342;2022-12-11T14:31:39;33.00;;;29.50;;
73959;SDS011;62316;48.920;2.342;2022-12-11T14:34:18;35.75;;;33.00;;
73959;SDS011;62316;48.920;2.342;2022-12-11T14:40:54;34.00;;;31.50;;
73959;SDS011;62316;48.920;2.342;2022-12-11T14:46:47;41.25;;;34.25;;
73959;SDS011;62316;48.920;2.342;2022-12-11T14:52:14;44.25;;;37.00;;
73959;SDS011;62316;48.920;2.342;2022-12-11T14:54:44;36.25;;;27.00;;
73959;SDS011;62316;48.920;2.342;2022-12-11T14:57:18;33.00;;;28.50;;
73959;SDS011;62316;48.920;2.342;2022-12-11T15:06:00;33.75;;;32.00;;
73959;SDS011;62316;48.920;2.342;2022-12-11T15:08:38;27.75;;;27.75;;
73959;SDS011;62316;48.920;2.342;2022-12-11T15:19:13;30.50;;;26.50;;
73959;SDS011;62316;48.920;2.342;2022-12-11T15:21:42;36.50;;;29.50;;
73959;SDS011;62316;48.920;2.342;2022-12-11T15:24:17;41.75;;;31.25;;
73959;SDS011;62316;48.920;2.342;2022-12-11T15:26:45;43.75;;;30.50;;
73959;SDS011;62316;48.920;2.342;2022-12-11T15:34:30;39.25;;;30.75;;
73959;SDS011;62316;48.920;2.342;2022-12-11T15:37:00;40.50;;;33.75;;
73959;SDS011;62316;48.920;2.342;2022-12-11T15:39:25;39.50;;;33.75;;
73959;SDS011;62316;48.920;2.342;2022-12-11T15:41:51;44.00;;;34.00;;
73959;SDS011;62316;48.920;2.342;2022-12-11T15:44:18;32.25;;;29.25;;
73959;SDS011;62316;48.920;2.342;2022-12-11T15:46:44;27.75;;;17.50;;
73959;SDS011;62316;48.920;2.342;2022-12-11T15:49:10;40.25;;;34.25;;
73959;SDS011;62316;48.920;2.342;2022-12-11T15:51:36;37.00;;;33.25;;
73959;SDS011;62316;48.920;2.342;2022-12-11T15:54:01;37.25;;;24.50;;
73959;SDS011;62316;48.920;2.342;2022-12-11T15:56:27;40.50;;;35.00;;
73959;SDS011;62316;48.920;2.342;2022-12-11T15:58:52;66.00;;;52.50;;
73959;SDS011;62316;48.920;2.342;2022-12-11T16:01:17;39.00;;;30.75;;
73959;SDS011;62316;48.920;2.342;2022-12-11T16:03:42;44.00;;;34.25;;
73959;SDS011;62316;48.920;2.342;2022-12-11T16:06:12;32.50;;;24.00;;
73959;SDS011;62316;48.920;2.342;2022-12-11T16:08:38;50.75;;;40.50;;
73959;SDS011;62316;48.920;2.342;2022-12-11T16:11:05;49.50;;;41.25;;
73959;SDS011;62316;48.920;2.342;2022-12-11T16:13:32;44.75;;;35.00;;
73959;SDS011;62316;48.920;2.342;2022-12-11T16:16:01;50.50;;;43.25;;
73959;SDS011;62316;48.920;2.342;2022-12-11T16:18:33;48.50;;;40.75;;
73959;SDS011;62316;48.920;2.342;2022-12-11T16:21:03;53.75;;;44.50;;
73959;SDS011;62316;48.920;2.342;2022-12-11T16:23:29;53.00;;;43.00;;
73959;SDS011;62316;48.920;2.342;2022-12-11T16:25:57;57.25;;;44.75;;
73959;SDS011;62316;48.920;2.342;2022-12-11T16:28:26;61.25;;;45.00;;
73959;SDS011;62316;48.920;2.342;2022-12-11T16:30:51;54.50;;;45.00;;
73959;SDS011;62316;48.920;2.342;2022-12-11T16:33:16;47.00;;;42.00;;
73959;SDS011;62316;48.920;2.342;2022-12-11T16:35:42;54.75;;;44.25;;
73959;SDS011;62316;48.920;2.342;2022-12-11T16:38:08;53.75;;;42.00;;
73959;SDS011;62316;48.920;2.342;2022-12-11T16:40:34;51.50;;;40.25;;
73959;SDS011;62316;48.920;2.342;2022-12-11T16:43:00;55.50;;;44.25;;